sensor_id;sensor_type;location;lat;lon;timestamp;P1;durP1;ratioP1;P2;durP2;ratioP2
56720;SDS011;53183;47.412;18.884;2023-11-22T00:00:30;22.17;;;12.70;;
56720;SDS011;53183;47.412;18.884;2023-11-22T00:02:58;23.45;;;12.37;;
56720;SDS011;53183;47.412;18.884;2023-11-22T00:05:25;21.55;;;11.55;;
56720;SDS011;53183;47.412;18.884;2023-11-22T00:07:53;33.20;;;12.90;;
56720;SDS011;53183;47.412;18.884;2023-11-22T00:10:21;24.48;;;11.73;;
56720;SDS011;53183;47.412;18.884;2023-11-22T00:12:48;27.95;;;12.50;;
56720;SDS011;53183;47.412;18.884;2023-11-22T00:15:16;31.05;;;12.82;;
56720;SDS011;53183;47.412;18.884;2023-11-22T00:17:45;22.65;;;11.43;;
56720;SDS011;53183;47.412;18.884;2023-11-22T00:20:13;28.17;;;14.25;;
56720;SDS011;53183;47.412;18.884;2023-11-22T00:22:42;20.00;;;11.15;;
56720;SDS011;53183;47.412;18.884;2023-11-22T00:25:12;27.75;;;12.63;;
56720;SDS011;53183;47.412;18.884;2023-11-22T00:27:42;31.58;;;14.23;;
56720;SDS011;53183;47.412;18.884;2023-11-22T00:30:10;22.73;;;13.05;;
56720;SDS011;53183;47.412;18.884;2023-11-22T00:32:37;22.77;;;11.93;;
56720;SDS011;53183;47.412;18.884;2023-11-22T00:35:08;23.58;;;12.37;;
56720;SDS011;53183;47.412;18.884;2023-11-22T00:37:36;22.80;;;12.23;;
56720;SDS011;53183;47.412;18.884;2023-11-22T00:40:04;22.00;;;11.23;;
56720;SDS011;53183;47.412;18.884;2023-11-22T00:42:37;18.92;;;10.60;;
56720;SDS011;53183;47.412;18.884;2023-11-22T00:45:08;25.55;;;11.98;;
56720;SDS011;53183;47.412;18.884;2023-11-22T00:47:37;22.00;;;11.75;;
56720;SDS011;53183;47.412;18.884;2023-11-22T00:50:06;20.98;;;11.30;;
56720;SDS011;53183;47.412;18.884;2023-11-22T00:52:35;19.60;;;11.73;;
56720;SDS011;53183;47.412;18.884;2023-11-22T00:55:02;22.73;;;11.32;;
56720;SDS011;53183;47.412;18.884;2023-11-22T00:57:36;24.07;;;11.60;;
56720;SDS011;53183;47.412;18.884;2023-11-22T01:00:05;20.33;;;10.63;;
56720;SDS011;53183;47.412;18.884;2023-11-22T01:02:38;20.80;;;11.63;;
56720;SDS011;53183;47.412;18.884;2023-11-22T01:05:06;26.60;;;11.50;;
56720;SDS011;53183;47.412;18.884;2023-11-22T01:07:38;23.40;;;12.57;;
56720;SDS011;53183;47.412;18.884;2023-11-22T01:10:07;23.02;;;11.80;;
56720;SDS011;53183;47.412;18.884;2023-11-22T01:12:35;23.23;;;11.05;;
56720;SDS011;53183;47.412;18.884;2023-11-22T01:15:02;19.58;;;11.05;;
56720;SDS011;53183;47.412;18.884;2023-11-22T01:17:30;21.12;;;10.63;;
56720;SDS011;53183;47.412;18.884;2023-11-22T01:20:01;21.58;;;11.35;;
56720;SDS011;53183;47.412;18.884;2023-11-22T01:22:30;26.30;;;11.43;;
56720;SDS011;53183;47.412;18.884;2023-11-22T01:24:58;19.87;;;10.43;;
56720;SDS011;53183;47.412;18.884;2023-11-22T01:27:27;23.20;;;10.35;;
56720;SDS011;53183;47.412;18.884;2023-11-22T01:29:55;22.08;;;10.10;;
56720;SDS011;53183;47.412;18.884;2023-11-22T01:32:23;25.95;;;11.10;;
56720;SDS011;53183;47.412;18.884;2023-11-22T01:34:51;19.62;;;10.80;;
56720;SDS011;53183;47.412;18.884;2023-11-22T01:37:19;19.55;;;9.75;;
56720;SDS011;53183;47.412;18.884;2023-11-22T01:39:47;18.08;;;9.35;;
56720;SDS011;53183;47.412;18.884;2023-11-22T01:42:16;19.77;;;10.02;;
56720;SDS011;53183;47.412;18.884;2023-11-22T01:44:44;22.10;;;11.38;;
56720;SDS011;53183;47.412;18.884;2023-11-22T01:47:11;21.35;;;10.27;;
56720;SDS011;53183;47.412;18.884;2023-11-22T01:49:39;21.55;;;12.00;;
56720;SDS011;53183;47.412;18.884;2023-11-22T01:52:07;18.12;;;9.63;;
56720;SDS011;53183;47.412;18.884;2023-11-22T01:54:35;15.75;;;9.90;;
56720;SDS011;53183;47.412;18.884;2023-11-22T01:57:02;16.70;;;9.90;;
56720;SDS011;53183;47.412;18.884;2023-11-22T01:59:30;19.35;;;9.35;;
56720;SDS011;53183;47.412;18.884;2023-11-22T02:01:58;26.45;;;11.25;;
56720;SDS011;53183;47.412;18.884;2023-11-22T02:04:26;21.52;;;11.75;;
56720;SDS011;53183;47.412;18.884;2023-11-22T02:06:54;18.77;;;10.20;;
56720;SDS011;53183;47.412;18.884;2023-11-22T02:09:22;19.02;;;9.95;;
56720;SDS011;53183;47.412;18.884;2023-11-22T02:11:50;19.42;;;10.38;;
56720;SDS011;53183;47.412;18.884;2023-11-22T02:14:17;22.50;;;10.73;;
56720;SDS011;53183;47.412;18.884;2023-11-22T02:16:46;20.48;;;9.52;;
56720;SDS011;53183;47.412;18.884;2023-11-22T02:19:15;26.23;;;11.65;;
56720;SDS011;53183;47.412;18.884;2023-11-22T02:21:43;21.80;;;9.73;;
56720;SDS011;53183;47.412;18.884;2023-11-22T02:24:11;19.08;;;11.18;;
56720;SDS011;53183;47.412;18.884;2023-11-22T02:26:43;19.48;;;10.40;;
56720;SDS011;53183;47.412;18.884;2023-11-22T02:29:11;15.57;;;9.10;;
56720;SDS011;53183;47.412;18.884;2023-11-22T02:31:41;15.75;;;9.50;;
56720;SDS011;53183;47.412;18.884;2023-11-22T02:34:12;20.00;;;10.25;;
56720;SDS011;53183;47.412;18.884;2023-11-22T02:36:41;22.27;;;10.48;;
56720;SDS011;53183;47.412;18.884;2023-11-22T02:39:21;21.58;;;10.68;;
56720;SDS011;53183;47.412;18.884;2023-11-22T02:41:55;22.13;;;10.93;;
56720;SDS011;53183;47.412;18.884;2023-11-22T02:44:23;22.98;;;10.93;;
56720;SDS011;53183;47.412;18.884;2023-11-22T02:46:51;22.05;;;11.10;;
56720;SDS011;53183;47.412;18.884;2023-11-22T02:49:20;22.37;;;11.32;;
56720;SDS011;53183;47.412;18.884;2023-11-22T02:51:48;17.17;;;10.43;;
56720;SDS011;53183;47.412;18.884;2023-11-22T02:54:15;20.73;;;9.38;;
56720;SDS011;53183;47.412;18.884;2023-11-22T02:56:43;20.02;;;11.07;;
56720;SDS011;53183;47.412;18.884;2023-11-22T02:59:11;21.98;;;11.32;;
56720;SDS011;53183;47.412;18.884;2023-11-22T03:01:40;22.95;;;10.57;;
56720;SDS011;53183;47.412;18.884;2023-11-22T03:04:10;22.95;;;10.45;;
56720;SDS011;53183;47.412;18.884;2023-11-22T03:06:37;22.67;;;11.23;;
56720;SDS011;53183;47.412;18.884;2023-11-22T03:09:05;18.42;;;11.10;;
56720;SDS011;53183;47.412;18.884;2023-11-22T03:11:32;18.08;;;10.02;;
56720;SDS011;53183;47.412;18.884;2023-11-22T03:14:00;18.20;;;10.43;;
56720;SDS011;53183;47.412;18.884;2023-11-22T03:16:30;16.17;;;9.57;;
56720;SDS011;53183;47.412;18.884;2023-11-22T03:18:58;16.00;;;9.23;;
56720;SDS011;53183;47.412;18.884;2023-11-22T03:21:26;16.20;;;9.73;;
56720;SDS011;53183;47.412;18.884;2023-11-22T03:23:54;15.90;;;8.85;;
56720;SDS011;53183;47.412;18.884;2023-11-22T03:26:21;17.77;;;8.90;;
56720;SDS011;53183;47.412;18.884;2023-11-22T03:28:49;14.63;;;8.55;;
56720;SDS011;53183;47.412;18.884;2023-11-22T03:31:16;16.30;;;8.73;;
56720;SDS011;53183;47.412;18.884;2023-11-22T03:33:43;17.55;;;8.43;;
56720;SDS011;53183;47.412;18.884;2023-11-22T03:36:13;16.83;;;9.07;;
56720;SDS011;53183;47.412;18.884;2023-11-22T03:38:40;14.15;;;8.25;;
56720;SDS011;53183;47.412;18.884;2023-11-22T03:41:08;16.00;;;8.73;;
56720;SDS011;53183;47.412;18.884;2023-11-22T03:43:36;17.58;;;8.93;;
56720;SDS011;53183;47.412;18.884;2023-11-22T03:46:03;14.95;;;8.40;;
56720;SDS011;53183;47.412;18.884;2023-11-22T03:48:30;16.00;;;8.90;;
56720;SDS011;53183;47.412;18.884;2023-11-22T03:50:59;21.27;;;9.13;;
56720;SDS011;53183;47.412;18.884;2023-11-22T03:53:28;14.02;;;8.13;;
56720;SDS011;53183;47.412;18.884;2023-11-22T03:55:56;13.90;;;7.90;;
56720;SDS011;53183;47.412;18.884;2023-11-22T03:58:23;15.98;;;8.38;;
56720;SDS011;53183;47.412;18.884;2023-11-22T04:00:51;13.75;;;8.20;;
56720;SDS011;53183;47.412;18.884;2023-11-22T04:03:20;14.40;;;7.40;;
56720;SDS011;53183;47.412;18.884;2023-11-22T04:05:47;15.77;;;8.38;;
56720;SDS011;53183;47.412;18.884;2023-11-22T04:08:14;21.95;;;7.22;;
56720;SDS011;53183;47.412;18.884;2023-11-22T04:10:42;13.35;;;6.57;;
56720;SDS011;53183;47.412;18.884;2023-11-22T04:13:12;20.58;;;7.32;;
56720;SDS011;53183;47.412;18.884;2023-11-22T04:15:40;14.18;;;7.22;;
56720;SDS011;53183;47.412;18.884;2023-11-22T04:18:08;10.93;;;6.93;;
56720;SDS011;53183;47.412;18.884;2023-11-22T04:20:37;10.05;;;6.32;;
56720;SDS011;53183;47.412;18.884;2023-11-22T04:23:04;10.07;;;5.70;;
56720;SDS011;53183;47.412;18.884;2023-11-22T04:25:32;12.43;;;5.95;;
56720;SDS011;53183;47.412;18.884;2023-11-22T04:28:01;14.25;;;6.57;;
56720;SDS011;53183;47.412;18.884;2023-11-22T04:30:29;9.73;;;5.25;;
56720;SDS011;53183;47.412;18.884;2023-11-22T04:32:56;9.63;;;5.25;;
56720;SDS011;53183;47.412;18.884;2023-11-22T04:35:23;9.68;;;5.18;;
56720;SDS011;53183;47.412;18.884;2023-11-22T04:37:51;10.30;;;4.60;;
56720;SDS011;53183;47.412;18.884;2023-11-22T04:40:19;7.05;;;4.12;;
56720;SDS011;53183;47.412;18.884;2023-11-22T04:42:46;13.20;;;4.97;;
56720;SDS011;53183;47.412;18.884;2023-11-22T04:45:14;9.43;;;4.55;;
56720;SDS011;53183;47.412;18.884;2023-11-22T04:47:41;7.53;;;4.05;;
56720;SDS011;53183;47.412;18.884;2023-11-22T04:50:09;9.80;;;4.80;;
56720;SDS011;53183;47.412;18.884;2023-11-22T04:52:37;7.85;;;4.78;;
56720;SDS011;53183;47.412;18.884;2023-11-22T04:55:07;8.40;;;4.03;;
56720;SDS011;53183;47.412;18.884;2023-11-22T04:57:34;5.90;;;3.47;;
56720;SDS011;53183;47.412;18.884;2023-11-22T05:00:03;10.73;;;3.92;;
56720;SDS011;53183;47.412;18.884;2023-11-22T05:02:32;5.50;;;3.87;;
56720;SDS011;53183;47.412;18.884;2023-11-22T05:05:02;6.18;;;4.12;;
56720;SDS011;53183;47.412;18.884;2023-11-22T05:07:31;6.97;;;4.07;;
56720;SDS011;53183;47.412;18.884;2023-11-22T05:09:58;5.68;;;3.47;;
56720;SDS011;53183;47.412;18.884;2023-11-22T05:12:26;5.40;;;3.47;;
56720;SDS011;53183;47.412;18.884;2023-11-22T05:14:53;7.90;;;3.47;;
56720;SDS011;53183;47.412;18.884;2023-11-22T05:17:22;7.57;;;3.60;;
56720;SDS011;53183;47.412;18.884;2023-11-22T05:19:49;8.70;;;3.40;;
56720;SDS011;53183;47.412;18.884;2023-11-22T05:22:20;4.35;;;2.50;;
56720;SDS011;53183;47.412;18.884;2023-11-22T05:24:49;5.93;;;3.20;;
56720;SDS011;53183;47.412;18.884;2023-11-22T05:27:18;11.12;;;3.47;;
56720;SDS011;53183;47.412;18.884;2023-11-22T05:29:46;7.18;;;3.80;;
56720;SDS011;53183;47.412;18.884;2023-11-22T05:32:23;6.70;;;3.95;;
56720;SDS011;53183;47.412;18.884;2023-11-22T05:34:51;10.20;;;3.83;;
56720;SDS011;53183;47.412;18.884;2023-11-22T05:37:26;7.57;;;3.45;;
56720;SDS011;53183;47.412;18.884;2023-11-22T05:42:56;6.15;;;3.58;;
56720;SDS011;53183;47.412;18.884;2023-11-22T05:45:26;9.75;;;4.10;;
56720;SDS011;53183;47.412;18.884;2023-11-22T05:48:05;6.22;;;3.78;;
56720;SDS011;53183;47.412;18.884;2023-11-22T05:50:46;8.18;;;3.87;;
56720;SDS011;53183;47.412;18.884;2023-11-22T05:53:25;7.72;;;3.42;;
56720;SDS011;53183;47.412;18.884;2023-11-22T05:55:55;7.25;;;3.50;;
56720;SDS011;53183;47.412;18.884;2023-11-22T05:58:27;6.35;;;3.87;;
56720;SDS011;53183;47.412;18.884;2023-11-22T06:01:00;11.07;;;3.40;;
56720;SDS011;53183;47.412;18.884;2023-11-22T06:03:35;6.72;;;3.22;;
56720;SDS011;53183;47.412;18.884;2023-11-22T06:06:15;6.35;;;3.47;;
56720;SDS011;53183;47.412;18.884;2023-11-22T06:08:51;6.57;;;3.85;;
56720;SDS011;53183;47.412;18.884;2023-11-22T06:11:28;26.42;;;5.78;;
56720;SDS011;53183;47.412;18.884;2023-11-22T06:14:07;17.20;;;5.45;;
56720;SDS011;53183;47.412;18.884;2023-11-22T06:16:53;11.07;;;6.72;;
56720;SDS011;53183;47.412;18.884;2023-11-22T06:19:29;9.85;;;4.00;;
56720;SDS011;53183;47.412;18.884;2023-11-22T06:22:06;11.85;;;4.03;;
56720;SDS011;53183;47.412;18.884;2023-11-22T06:24:47;16.75;;;3.80;;
56720;SDS011;53183;47.412;18.884;2023-11-22T06:27:18;11.75;;;3.80;;
56720;SDS011;53183;47.412;18.884;2023-11-22T06:29:58;17.55;;;5.03;;
56720;SDS011;53183;47.412;18.884;2023-11-22T06:32:36;13.88;;;4.82;;
56720;SDS011;53183;47.412;18.884;2023-11-22T06:35:16;6.72;;;3.95;;
56720;SDS011;53183;47.412;18.884;2023-11-22T06:38:00;6.53;;;3.72;;
56720;SDS011;53183;47.412;18.884;2023-11-22T06:40:38;6.40;;;3.45;;
56720;SDS011;53183;47.412;18.884;2023-11-22T06:43:12;7.95;;;3.30;;
56720;SDS011;53183;47.412;18.884;2023-11-22T06:45:44;12.50;;;4.62;;
56720;SDS011;53183;47.412;18.884;2023-11-22T06:48:18;12.13;;;3.72;;
56720;SDS011;53183;47.412;18.884;2023-11-22T06:50:54;9.18;;;3.17;;
56720;SDS011;53183;47.412;18.884;2023-11-22T06:53:29;15.05;;;4.10;;
56720;SDS011;53183;47.412;18.884;2023-11-22T06:56:02;7.55;;;4.12;;
56720;SDS011;53183;47.412;18.884;2023-11-22T06:58:34;18.00;;;3.92;;
56720;SDS011;53183;47.412;18.884;2023-11-22T07:01:23;14.27;;;3.58;;
56720;SDS011;53183;47.412;18.884;2023-11-22T07:04:11;12.88;;;4.37;;
56720;SDS011;53183;47.412;18.884;2023-11-22T07:06:51;18.75;;;3.72;;
56720;SDS011;53183;47.412;18.884;2023-11-22T07:09:27;5.40;;;3.67;;
56720;SDS011;53183;47.412;18.884;2023-11-22T07:12:04;7.95;;;3.28;;
56720;SDS011;53183;47.412;18.884;2023-11-22T07:14:39;5.90;;;3.42;;
56720;SDS011;53183;47.412;18.884;2023-11-22T07:17:16;13.57;;;4.62;;
56720;SDS011;53183;47.412;18.884;2023-11-22T07:19:49;7.72;;;3.60;;
56720;SDS011;53183;47.412;18.884;2023-11-22T07:22:23;11.10;;;4.63;;
56720;SDS011;53183;47.412;18.884;2023-11-22T07:25:01;6.75;;;3.67;;
56720;SDS011;53183;47.412;18.884;2023-11-22T07:27:35;8.10;;;4.18;;
56720;SDS011;53183;47.412;18.884;2023-11-22T07:30:09;7.28;;;3.30;;
56720;SDS011;53183;47.412;18.884;2023-11-22T07:32:45;11.38;;;3.47;;
56720;SDS011;53183;47.412;18.884;2023-11-22T07:35:19;6.55;;;3.30;;
56720;SDS011;53183;47.412;18.884;2023-11-22T07:37:50;5.03;;;2.62;;
56720;SDS011;53183;47.412;18.884;2023-11-22T07:40:24;5.95;;;3.08;;
56720;SDS011;53183;47.412;18.884;2023-11-22T07:42:56;6.37;;;2.72;;
56720;SDS011;53183;47.412;18.884;2023-11-22T07:45:28;10.02;;;3.80;;
56720;SDS011;53183;47.412;18.884;2023-11-22T07:48:08;5.93;;;3.47;;
56720;SDS011;53183;47.412;18.884;2023-11-22T07:50:42;8.50;;;2.97;;
56720;SDS011;53183;47.412;18.884;2023-11-22T07:53:18;8.48;;;3.15;;
56720;SDS011;53183;47.412;18.884;2023-11-22T07:55:51;5.07;;;3.10;;
56720;SDS011;53183;47.412;18.884;2023-11-22T08:00:54;8.98;;;3.40;;
56720;SDS011;53183;47.412;18.884;2023-11-22T08:07:16;6.28;;;3.65;;
56720;SDS011;53183;47.412;18.884;2023-11-22T08:09:47;7.05;;;3.65;;
56720;SDS011;53183;47.412;18.884;2023-11-22T08:12:31;4.45;;;2.53;;
56720;SDS011;53183;47.412;18.884;2023-11-22T08:15:09;6.47;;;3.20;;
56720;SDS011;53183;47.412;18.884;2023-11-22T08:17:45;4.20;;;3.15;;
56720;SDS011;53183;47.412;18.884;2023-11-22T08:20:51;4.80;;;3.03;;
56720;SDS011;53183;47.412;18.884;2023-11-22T08:23:27;4.43;;;2.47;;
56720;SDS011;53183;47.412;18.884;2023-11-22T08:26:01;5.07;;;2.47;;
56720;SDS011;53183;47.412;18.884;2023-11-22T08:28:33;3.80;;;2.67;;
56720;SDS011;53183;47.412;18.884;2023-11-22T08:31:04;6.22;;;3.17;;
56720;SDS011;53183;47.412;18.884;2023-11-22T08:33:37;11.82;;;3.75;;
56720;SDS011;53183;47.412;18.884;2023-11-22T08:36:08;6.55;;;3.40;;
56720;SDS011;53183;47.412;18.884;2023-11-22T08:38:37;9.32;;;3.47;;
56720;SDS011;53183;47.412;18.884;2023-11-22T08:41:12;5.82;;;3.28;;
56720;SDS011;53183;47.412;18.884;2023-11-22T08:47:20;6.20;;;3.40;;
56720;SDS011;53183;47.412;18.884;2023-11-22T08:50:00;6.07;;;3.83;;
56720;SDS011;53183;47.412;18.884;2023-11-22T08:52:33;5.25;;;3.37;;
56720;SDS011;53183;47.412;18.884;2023-11-22T08:55:02;6.22;;;3.35;;
56720;SDS011;53183;47.412;18.884;2023-11-22T08:57:30;11.27;;;3.72;;
56720;SDS011;53183;47.412;18.884;2023-11-22T09:00:16;7.82;;;3.70;;
56720;SDS011;53183;47.412;18.884;2023-11-22T09:03:01;7.78;;;4.62;;
56720;SDS011;53183;47.412;18.884;2023-11-22T09:05:33;6.70;;;4.10;;
56720;SDS011;53183;47.412;18.884;2023-11-22T09:08:02;10.73;;;3.67;;
56720;SDS011;53183;47.412;18.884;2023-11-22T09:10:44;9.60;;;4.00;;
56720;SDS011;53183;47.412;18.884;2023-11-22T09:13:16;9.35;;;4.10;;
56720;SDS011;53183;47.412;18.884;2023-11-22T09:15:43;9.23;;;3.47;;
56720;SDS011;53183;47.412;18.884;2023-11-22T09:18:13;5.10;;;3.50;;
56720;SDS011;53183;47.412;18.884;2023-11-22T09:20:43;10.00;;;4.25;;
56720;SDS011;53183;47.412;18.884;2023-11-22T09:23:11;14.20;;;4.53;;
56720;SDS011;53183;47.412;18.884;2023-11-22T09:25:41;10.43;;;4.47;;
56720;SDS011;53183;47.412;18.884;2023-11-22T09:28:11;8.63;;;4.60;;
56720;SDS011;53183;47.412;18.884;2023-11-22T09:30:38;7.60;;;4.15;;
56720;SDS011;53183;47.412;18.884;2023-11-22T09:33:12;7.95;;;4.57;;
56720;SDS011;53183;47.412;18.884;2023-11-22T09:35:44;6.78;;;3.83;;
56720;SDS011;53183;47.412;18.884;2023-11-22T09:38:14;7.45;;;4.28;;
56720;SDS011;53183;47.412;18.884;2023-11-22T09:40:47;8.77;;;4.20;;
56720;SDS011;53183;47.412;18.884;2023-11-22T09:43:17;6.53;;;3.22;;
56720;SDS011;53183;47.412;18.884;2023-11-22T09:45:49;19.87;;;4.78;;
56720;SDS011;53183;47.412;18.884;2023-11-22T09:48:24;9.80;;;4.35;;
56720;SDS011;53183;47.412;18.884;2023-11-22T09:56:13;11.02;;;5.15;;
56720;SDS011;53183;47.412;18.884;2023-11-22T10:05:13;7.87;;;4.78;;
56720;SDS011;53183;47.412;18.884;2023-11-22T10:07:43;7.75;;;5.15;;
56720;SDS011;53183;47.412;18.884;2023-11-22T10:10:28;7.35;;;4.70;;
56720;SDS011;53183;47.412;18.884;2023-11-22T10:13:02;11.25;;;5.40;;
56720;SDS011;53183;47.412;18.884;2023-11-22T10:15:32;8.35;;;5.32;;
56720;SDS011;53183;47.412;18.884;2023-11-22T10:18:04;9.13;;;5.50;;
56720;SDS011;53183;47.412;18.884;2023-11-22T10:20:37;9.50;;;5.95;;
56720;SDS011;53183;47.412;18.884;2023-11-22T10:23:08;12.75;;;6.28;;
56720;SDS011;53183;47.412;18.884;2023-11-22T10:25:43;10.88;;;6.60;;
56720;SDS011;53183;47.412;18.884;2023-11-22T10:28:13;11.20;;;6.30;;
56720;SDS011;53183;47.412;18.884;2023-11-22T10:30:46;11.30;;;6.90;;
56720;SDS011;53183;47.412;18.884;2023-11-22T10:33:20;11.70;;;6.68;;
56720;SDS011;53183;47.412;18.884;2023-11-22T10:35:55;13.73;;;7.32;;
56720;SDS011;53183;47.412;18.884;2023-11-22T10:38:26;18.83;;;6.47;;
56720;SDS011;53183;47.412;18.884;2023-11-22T10:41:10;16.17;;;8.65;;
56720;SDS011;53183;47.412;18.884;2023-11-22T10:43:43;12.65;;;7.07;;
56720;SDS011;53183;47.412;18.884;2023-11-22T10:46:15;12.23;;;7.07;;
56720;SDS011;53183;47.412;18.884;2023-11-22T10:48:45;14.90;;;7.95;;
56720;SDS011;53183;47.412;18.884;2023-11-22T10:51:19;16.90;;;7.87;;
56720;SDS011;53183;47.412;18.884;2023-11-22T10:53:55;16.52;;;8.73;;
56720;SDS011;53183;47.412;18.884;2023-11-22T10:56:27;15.80;;;8.43;;
56720;SDS011;53183;47.412;18.884;2023-11-22T10:59:05;14.30;;;7.82;;
56720;SDS011;53183;47.412;18.884;2023-11-22T11:01:50;14.18;;;8.57;;
56720;SDS011;53183;47.412;18.884;2023-11-22T11:04:26;16.73;;;8.07;;
56720;SDS011;53183;47.412;18.884;2023-11-22T11:07:02;16.27;;;7.95;;
56720;SDS011;53183;47.412;18.884;2023-11-22T11:09:31;14.60;;;8.02;;
56720;SDS011;53183;47.412;18.884;2023-11-22T11:12:02;20.23;;;8.20;;
56720;SDS011;53183;47.412;18.884;2023-11-22T11:14:35;16.42;;;7.95;;
56720;SDS011;53183;47.412;18.884;2023-11-22T11:17:06;18.85;;;9.88;;
56720;SDS011;53183;47.412;18.884;2023-11-22T11:19:38;21.27;;;10.50;;
56720;SDS011;53183;47.412;18.884;2023-11-22T11:22:10;20.60;;;9.73;;
56720;SDS011;53183;47.412;18.884;2023-11-22T11:24:39;21.40;;;10.52;;
56720;SDS011;53183;47.412;18.884;2023-11-22T11:27:13;19.15;;;9.38;;
56720;SDS011;53183;47.412;18.884;2023-11-22T11:29:52;17.95;;;9.13;;
56720;SDS011;53183;47.412;18.884;2023-11-22T11:32:30;16.70;;;9.73;;
56720;SDS011;53183;47.412;18.884;2023-11-22T11:35:09;19.17;;;9.45;;
56720;SDS011;53183;47.412;18.884;2023-11-22T11:37:39;24.45;;;9.98;;
56720;SDS011;53183;47.412;18.884;2023-11-22T11:40:27;22.17;;;10.80;;
56720;SDS011;53183;47.412;18.884;2023-11-22T11:43:01;20.90;;;10.02;;
56720;SDS011;53183;47.412;18.884;2023-11-22T11:45:38;19.12;;;10.27;;
56720;SDS011;53183;47.412;18.884;2023-11-22T11:48:14;18.70;;;9.43;;
56720;SDS011;53183;47.412;18.884;2023-11-22T11:50:46;18.77;;;8.95;;
56720;SDS011;53183;47.412;18.884;2023-11-22T11:53:20;21.58;;;11.52;;
56720;SDS011;53183;47.412;18.884;2023-11-22T11:55:49;20.48;;;10.63;;
56720;SDS011;53183;47.412;18.884;2023-11-22T11:58:27;18.08;;;10.02;;
56720;SDS011;53183;47.412;18.884;2023-11-22T12:00:59;18.85;;;9.93;;
56720;SDS011;53183;47.412;18.884;2023-11-22T12:03:33;18.35;;;9.10;;
56720;SDS011;53183;47.412;18.884;2023-11-22T12:06:05;17.58;;;9.43;;
56720;SDS011;53183;47.412;18.884;2023-11-22T12:08:40;24.33;;;9.85;;
56720;SDS011;53183;47.412;18.884;2023-11-22T12:11:28;19.65;;;8.55;;
56720;SDS011;53183;47.412;18.884;2023-11-22T12:14:00;14.40;;;8.10;;
56720;SDS011;53183;47.412;18.884;2023-11-22T12:16:32;17.00;;;9.30;;
56720;SDS011;53183;47.412;18.884;2023-11-22T12:19:02;16.02;;;9.38;;
56720;SDS011;53183;47.412;18.884;2023-11-22T12:21:32;17.30;;;9.30;;
56720;SDS011;53183;47.412;18.884;2023-11-22T12:24:03;16.62;;;9.95;;
56720;SDS011;53183;47.412;18.884;2023-11-22T12:26:36;19.87;;;11.07;;
56720;SDS011;53183;47.412;18.884;2023-11-22T12:29:13;18.10;;;10.27;;
56720;SDS011;53183;47.412;18.884;2023-11-22T12:31:48;20.15;;;11.60;;
56720;SDS011;53183;47.412;18.884;2023-11-22T12:34:25;22.20;;;11.52;;
56720;SDS011;53183;47.412;18.884;2023-11-22T12:37:00;21.80;;;13.23;;
56720;SDS011;53183;47.412;18.884;2023-11-22T12:39:29;22.37;;;12.90;;
56720;SDS011;53183;47.412;18.884;2023-11-22T12:42:10;24.52;;;12.63;;
56720;SDS011;53183;47.412;18.884;2023-11-22T12:44:51;22.85;;;12.73;;
56720;SDS011;53183;47.412;18.884;2023-11-22T12:47:33;20.60;;;10.93;;
56720;SDS011;53183;47.412;18.884;2023-11-22T12:50:07;21.07;;;10.83;;
56720;SDS011;53183;47.412;18.884;2023-11-22T12:53:14;14.93;;;9.02;;
56720;SDS011;53183;47.412;18.884;2023-11-22T12:55:54;17.85;;;10.40;;
56720;SDS011;53183;47.412;18.884;2023-11-22T12:58:38;19.48;;;11.88;;
56720;SDS011;53183;47.412;18.884;2023-11-22T13:01:09;16.50;;;10.20;;
56720;SDS011;53183;47.412;18.884;2023-11-22T13:03:39;14.32;;;9.48;;
56720;SDS011;53183;47.412;18.884;2023-11-22T13:06:15;16.45;;;10.07;;
56720;SDS011;53183;47.412;18.884;2023-11-22T13:08:53;20.77;;;11.52;;
56720;SDS011;53183;47.412;18.884;2023-11-22T13:11:23;19.80;;;10.43;;
56720;SDS011;53183;47.412;18.884;2023-11-22T13:14:05;21.62;;;11.35;;
56720;SDS011;53183;47.412;18.884;2023-11-22T13:16:38;15.65;;;9.63;;
56720;SDS011;53183;47.412;18.884;2023-11-22T13:19:39;18.87;;;10.50;;
56720;SDS011;53183;47.412;18.884;2023-11-22T13:22:09;15.77;;;9.38;;
56720;SDS011;53183;47.412;18.884;2023-11-22T13:24:37;21.30;;;10.77;;
56720;SDS011;53183;47.412;18.884;2023-11-22T13:27:09;18.87;;;10.82;;
56720;SDS011;53183;47.412;18.884;2023-11-22T13:29:47;16.98;;;10.23;;
56720;SDS011;53183;47.412;18.884;2023-11-22T13:32:31;16.15;;;8.55;;
56720;SDS011;53183;47.412;18.884;2023-11-22T13:35:03;16.37;;;10.15;;
56720;SDS011;53183;47.412;18.884;2023-11-22T13:37:41;15.70;;;9.90;;
56720;SDS011;53183;47.412;18.884;2023-11-22T13:40:18;17.80;;;8.45;;
56720;SDS011;53183;47.412;18.884;2023-11-22T13:42:57;15.00;;;10.10;;
56720;SDS011;53183;47.412;18.884;2023-11-22T13:45:52;13.95;;;7.78;;
56720;SDS011;53183;47.412;18.884;2023-11-22T13:48:32;14.15;;;7.82;;
56720;SDS011;53183;47.412;18.884;2023-11-22T13:51:21;14.55;;;8.73;;
56720;SDS011;53183;47.412;18.884;2023-11-22T13:53:56;14.65;;;7.47;;
56720;SDS011;53183;47.412;18.884;2023-11-22T13:57:05;12.27;;;7.95;;
56720;SDS011;53183;47.412;18.884;2023-11-22T13:59:38;12.75;;;7.25;;
56720;SDS011;53183;47.412;18.884;2023-11-22T14:02:30;14.68;;;7.32;;
56720;SDS011;53183;47.412;18.884;2023-11-22T14:05:02;11.73;;;6.95;;
56720;SDS011;53183;47.412;18.884;2023-11-22T14:10:03;13.70;;;7.35;;
56720;SDS011;53183;47.412;18.884;2023-11-22T14:12:37;12.77;;;6.37;;
56720;SDS011;53183;47.412;18.884;2023-11-22T14:15:07;12.90;;;6.25;;
56720;SDS011;53183;47.412;18.884;2023-11-22T14:17:54;12.30;;;6.25;;
56720;SDS011;53183;47.412;18.884;2023-11-22T14:20:23;9.75;;;6.03;;
56720;SDS011;53183;47.412;18.884;2023-11-22T14:22:53;8.60;;;5.37;;
56720;SDS011;53183;47.412;18.884;2023-11-22T14:25:22;13.27;;;5.75;;
56720;SDS011;53183;47.412;18.884;2023-11-22T14:27:52;8.90;;;5.07;;
56720;SDS011;53183;47.412;18.884;2023-11-22T14:30:27;19.83;;;6.10;;
56720;SDS011;53183;47.412;18.884;2023-11-22T14:32:57;9.95;;;5.22;;
56720;SDS011;53183;47.412;18.884;2023-11-22T14:35:27;20.30;;;6.30;;
56720;SDS011;53183;47.412;18.884;2023-11-22T14:37:55;11.85;;;5.90;;
56720;SDS011;53183;47.412;18.884;2023-11-22T14:40:26;10.52;;;5.55;;
56720;SDS011;53183;47.412;18.884;2023-11-22T14:42:58;12.65;;;7.07;;
56720;SDS011;53183;47.412;18.884;2023-11-22T14:45:26;9.30;;;5.20;;
56720;SDS011;53183;47.412;18.884;2023-11-22T14:47:55;9.23;;;5.15;;
56720;SDS011;53183;47.412;18.884;2023-11-22T14:50:25;9.65;;;5.47;;
56720;SDS011;53183;47.412;18.884;2023-11-22T14:52:57;9.98;;;5.57;;
56720;SDS011;53183;47.412;18.884;2023-11-22T14:55:25;13.82;;;4.78;;
56720;SDS011;53183;47.412;18.884;2023-11-22T14:57:53;11.40;;;5.22;;
56720;SDS011;53183;47.412;18.884;2023-11-22T15:00:24;9.65;;;5.47;;
56720;SDS011;53183;47.412;18.884;2023-11-22T15:02:52;9.95;;;5.57;;
56720;SDS011;53183;47.412;18.884;2023-11-22T15:05:24;10.60;;;5.18;;
56720;SDS011;53183;47.412;18.884;2023-11-22T15:07:53;10.10;;;5.28;;
56720;SDS011;53183;47.412;18.884;2023-11-22T15:10:22;11.00;;;5.35;;
56720;SDS011;53183;47.412;18.884;2023-11-22T15:12:51;11.20;;;4.87;;
56720;SDS011;53183;47.412;18.884;2023-11-22T15:15:21;8.82;;;5.10;;
56720;SDS011;53183;47.412;18.884;2023-11-22T15:17:52;11.20;;;4.75;;